Crystal, Nevada
Current Conditions -  °F | °C
As of 5:52 PM on Saturday 25 Oct 2014 (Local Time) from KDRA Reporting Station
Clear Clear  
Wind Chill: 24°   Ceiling: Unl
Heat Index: 24°   Visibility: 10mi
Dew Point:   Wind: 21mph
Humidity: 24%   Direction: 210°SSW
Pressure: 29.96"   Gusts: 29mph
Location:  36.2552°N, 116.039°W
Report Text: KDRA 260052Z AUTO 21018G25KT 10SM CLR 24/02 A2996 RMK AO2 PK WND 21028/0036 SLP107 T02390022
Loading
Personal Weather Stations






























Interactive Weather Map
Tropical Storm Tracking
New forecast layout! Learn more

10-Day Weather Forecast

Advertisements
Track Severe Weather on mobile